createdAt,value
2023-04-11T18:42:07.459Z,26.33
2023-04-11T18:47:19.098Z,21.55
2023-04-11T18:49:57.563Z,17.85
2023-04-11T18:52:35.067Z,13.38
2023-04-11T18:55:15.109Z,15.38
2023-04-11T18:57:53.107Z,14.83
2023-04-11T19:00:38.739Z,16.85
2023-04-11T19:03:14.084Z,15.05
2023-04-11T19:05:54.233Z,16.35
2023-04-11T19:08:32.623Z,15.23
2023-04-11T19:11:12.959Z,17.57
2023-04-11T21:17:29.915Z,21.73
2023-04-11T21:20:05.226Z,20.82
2023-04-11T21:22:40.354Z,21.23
2023-04-11T21:25:13.814Z,23.90
2023-04-11T21:27:47.695Z,22.00
2023-04-11T21:30:20.905Z,21.85
2023-04-11T21:32:54.209Z,21.97
2023-04-11T21:35:29.639Z,21.20
2023-04-11T21:38:02.828Z,22.42
2023-04-11T21:40:37.927Z,23.42
2023-04-11T21:43:15.933Z,21.52
2023-04-11T21:48:24.209Z,21.07
2023-04-11T21:50:59.378Z,21.57
2023-04-11T21:53:34.481Z,21.95
2023-04-11T21:56:11.811Z,22.75
2023-04-11T21:58:45.076Z,23.55
2023-04-11T22:01:20.430Z,20.95
2023-04-11T22:03:53.685Z,21.35
2023-04-11T22:06:29.623Z,23.38
2023-04-11T22:09:03.746Z,21.55
2023-04-11T22:11:36.955Z,20.52
2023-04-11T22:14:12.084Z,21.50
2023-04-11T22:16:47.911Z,20.80
2023-04-11T22:19:23.828Z,21.75
2023-04-11T22:21:59.167Z,21.15
2023-04-11T22:24:34.738Z,20.82
2023-04-11T22:27:10.052Z,21.37
2023-04-11T22:29:45.190Z,20.52
2023-04-11T22:32:20.136Z,20.52
2023-04-11T22:34:53.495Z,20.68
2023-04-11T22:37:26.739Z,22.07
2023-04-11T22:40:00.160Z,21.25
2023-04-11T22:42:33.396Z,21.60
2023-04-11T22:45:08.301Z,21.12
2023-04-11T22:47:43.362Z,20.92
2023-04-11T22:50:20.326Z,21.55
2023-04-11T22:52:55.009Z,19.80
2023-04-11T22:55:32.500Z,21.15
2023-04-11T22:58:05.909Z,20.40
2023-04-11T23:00:39.774Z,21.17
2023-04-11T23:03:15.866Z,20.95
2023-04-11T23:05:49.789Z,22.40
2023-04-11T23:08:24.452Z,24.23
2023-04-11T23:10:58.450Z,20.62
2023-04-11T23:13:32.440Z,23.22
2023-04-11T23:16:16.343Z,23.50
2023-04-11T23:40:19.550Z,22.42
2023-04-11T23:42:58.680Z,25.02
2023-04-11T23:45:33.532Z,21.97
2023-04-11T23:48:10.722Z,21.95
2023-04-11T23:50:44.077Z,22.22
2023-04-11T23:53:19.825Z,23.98
2023-04-11T23:55:54.840Z,23.38
2023-04-11T23:58:28.333Z,24.00
